sensor_id;sensor_type;location;lat;lon;timestamp;P1;durP1;ratioP1;P2;durP2;ratioP2
79583;SDS011;69053;57.338;18.700;2023-04-16T00:00:09;4.85;;;2.83;;
79583;SDS011;69053;57.338;18.700;2023-04-16T00:05:10;6.18;;;2.80;;
79583;SDS011;69053;57.338;18.700;2023-04-16T00:10:10;5.38;;;2.72;;
79583;SDS011;69053;57.338;18.700;2023-04-16T00:15:11;5.22;;;3.13;;
79583;SDS011;69053;57.338;18.700;2023-04-16T00:20:11;9.65;;;3.13;;
79583;SDS011;69053;57.338;18.700;2023-04-16T00:25:12;6.72;;;3.30;;
79583;SDS011;69053;57.338;18.700;2023-04-16T00:30:13;7.13;;;3.33;;
79583;SDS011;69053;57.338;18.700;2023-04-16T00:35:13;8.13;;;3.53;;
79583;SDS011;69053;57.338;18.700;2023-04-16T00:40:17;10.27;;;3.53;;
79583;SDS011;69053;57.338;18.700;2023-04-16T00:45:18;7.70;;;3.00;;
79583;SDS011;69053;57.338;18.700;2023-04-16T00:50:18;7.28;;;3.10;;
79583;SDS011;69053;57.338;18.700;2023-04-16T00:55:19;7.22;;;3.28;;
79583;SDS011;69053;57.338;18.700;2023-04-16T01:00:20;6.18;;;3.35;;
79583;SDS011;69053;57.338;18.700;2023-04-16T01:05:21;7.65;;;3.45;;
79583;SDS011;69053;57.338;18.700;2023-04-16T01:10:21;7.43;;;3.22;;
79583;SDS011;69053;57.338;18.700;2023-04-16T01:15:22;7.25;;;3.17;;
79583;SDS011;69053;57.338;18.700;2023-04-16T01:20:23;9.20;;;3.50;;
79583;SDS011;69053;57.338;18.700;2023-04-16T01:25:23;8.45;;;3.78;;
79583;SDS011;69053;57.338;18.700;2023-04-16T01:30:24;10.13;;;3.78;;
79583;SDS011;69053;57.338;18.700;2023-04-16T01:35:25;14.05;;;3.72;;
79583;SDS011;69053;57.338;18.700;2023-04-16T01:40:25;7.55;;;2.75;;
79583;SDS011;69053;57.338;18.700;2023-04-16T01:45:26;5.97;;;3.22;;
79583;SDS011;69053;57.338;18.700;2023-04-16T01:50:27;8.02;;;3.72;;
79583;SDS011;69053;57.338;18.700;2023-04-16T01:55:28;6.05;;;3.20;;
79583;SDS011;69053;57.338;18.700;2023-04-16T02:00:29;5.63;;;3.15;;
79583;SDS011;69053;57.338;18.700;2023-04-16T02:05:32;7.50;;;3.55;;
79583;SDS011;69053;57.338;18.700;2023-04-16T02:10:33;9.82;;;3.88;;
79583;SDS011;69053;57.338;18.700;2023-04-16T02:15:33;10.32;;;3.85;;
79583;SDS011;69053;57.338;18.700;2023-04-16T02:20:34;9.65;;;4.07;;
79583;SDS011;69053;57.338;18.700;2023-04-16T02:30:45;7.60;;;3.22;;
79583;SDS011;69053;57.338;18.700;2023-04-16T02:35:46;14.50;;;4.40;;
79583;SDS011;69053;57.338;18.700;2023-04-16T02:40:47;8.18;;;3.70;;
79583;SDS011;69053;57.338;18.700;2023-04-16T02:45:48;7.65;;;3.47;;
79583;SDS011;69053;57.338;18.700;2023-04-16T02:50:48;6.25;;;3.40;;
79583;SDS011;69053;57.338;18.700;2023-04-16T02:55:49;8.77;;;3.10;;
79583;SDS011;69053;57.338;18.700;2023-04-16T03:00:53;7.82;;;3.85;;
79583;SDS011;69053;57.338;18.700;2023-04-16T03:05:54;11.00;;;4.35;;
79583;SDS011;69053;57.338;18.700;2023-04-16T03:10:54;7.60;;;4.25;;
79583;SDS011;69053;57.338;18.700;2023-04-16T03:15:55;7.68;;;3.22;;
79583;SDS011;69053;57.338;18.700;2023-04-16T03:20:56;7.88;;;3.72;;
79583;SDS011;69053;57.338;18.700;2023-04-16T03:25:56;7.55;;;3.97;;
79583;SDS011;69053;57.338;18.700;2023-04-16T03:30:57;7.85;;;3.85;;
79583;SDS011;69053;57.338;18.700;2023-04-16T03:35:57;8.15;;;3.38;;
79583;SDS011;69053;57.338;18.700;2023-04-16T03:40:58;7.70;;;3.67;;
79583;SDS011;69053;57.338;18.700;2023-04-16T03:45:58;11.32;;;4.45;;
79583;SDS011;69053;57.338;18.700;2023-04-16T03:50:59;8.52;;;4.18;;
79583;SDS011;69053;57.338;18.700;2023-04-16T03:56:00;8.25;;;4.20;;
79583;SDS011;69053;57.338;18.700;2023-04-16T04:01:00;10.10;;;4.35;;
79583;SDS011;69053;57.338;18.700;2023-04-16T04:06:05;8.50;;;3.90;;
79583;SDS011;69053;57.338;18.700;2023-04-16T04:11:07;7.60;;;3.95;;
79583;SDS011;69053;57.338;18.700;2023-04-16T04:16:07;7.45;;;3.92;;
79583;SDS011;69053;57.338;18.700;2023-04-16T04:21:08;6.88;;;4.15;;
79583;SDS011;69053;57.338;18.700;2023-04-16T04:26:09;9.95;;;3.85;;
79583;SDS011;69053;57.338;18.700;2023-04-16T04:31:10;10.50;;;3.83;;
79583;SDS011;69053;57.338;18.700;2023-04-16T04:36:10;9.73;;;4.03;;
79583;SDS011;69053;57.338;18.700;2023-04-16T04:41:11;7.32;;;4.45;;
79583;SDS011;69053;57.338;18.700;2023-04-16T04:46:11;9.98;;;4.20;;
79583;SDS011;69053;57.338;18.700;2023-04-16T04:51:12;7.55;;;3.38;;
79583;SDS011;69053;57.338;18.700;2023-04-16T04:56:12;6.22;;;3.78;;
79583;SDS011;69053;57.338;18.700;2023-04-16T05:01:13;7.97;;;3.50;;
79583;SDS011;69053;57.338;18.700;2023-04-16T05:06:13;12.50;;;6.57;;
79583;SDS011;69053;57.338;18.700;2023-04-16T05:11:14;11.88;;;5.88;;
79583;SDS011;69053;57.338;18.700;2023-04-16T05:16:15;6.72;;;4.20;;
79583;SDS011;69053;57.338;18.700;2023-04-16T05:21:15;7.93;;;3.92;;
79583;SDS011;69053;57.338;18.700;2023-04-16T05:26:16;6.28;;;3.80;;
79583;SDS011;69053;57.338;18.700;2023-04-16T05:31:16;6.97;;;3.95;;
79583;SDS011;69053;57.338;18.700;2023-04-16T05:36:17;8.30;;;4.38;;
79583;SDS011;69053;57.338;18.700;2023-04-16T05:41:17;7.78;;;3.60;;
79583;SDS011;69053;57.338;18.700;2023-04-16T05:46:18;7.60;;;4.53;;
79583;SDS011;69053;57.338;18.700;2023-04-16T05:51:18;9.32;;;4.97;;
79583;SDS011;69053;57.338;18.700;2023-04-16T05:56:22;14.63;;;4.60;;
79583;SDS011;69053;57.338;18.700;2023-04-16T06:06:32;7.20;;;3.67;;
79583;SDS011;69053;57.338;18.700;2023-04-16T06:11:33;11.32;;;4.03;;
79583;SDS011;69053;57.338;18.700;2023-04-16T06:16:34;8.60;;;4.57;;
79583;SDS011;69053;57.338;18.700;2023-04-16T06:21:34;10.00;;;4.35;;
79583;SDS011;69053;57.338;18.700;2023-04-16T06:26:36;7.28;;;4.32;;
79583;SDS011;69053;57.338;18.700;2023-04-16T06:31:37;9.20;;;4.43;;
79583;SDS011;69053;57.338;18.700;2023-04-16T06:36:38;12.05;;;4.05;;
79583;SDS011;69053;57.338;18.700;2023-04-16T06:41:38;11.07;;;4.57;;
79583;SDS011;69053;57.338;18.700;2023-04-16T06:46:45;9.73;;;4.15;;
79583;SDS011;69053;57.338;18.700;2023-04-16T06:51:51;6.80;;;3.60;;
79583;SDS011;69053;57.338;18.700;2023-04-16T06:56:56;7.40;;;4.22;;
79583;SDS011;69053;57.338;18.700;2023-04-16T07:01:57;8.73;;;4.22;;
79583;SDS011;69053;57.338;18.700;2023-04-16T07:06:58;7.90;;;4.28;;
79583;SDS011;69053;57.338;18.700;2023-04-16T07:11:58;9.45;;;4.38;;
79583;SDS011;69053;57.338;18.700;2023-04-16T07:16:59;7.85;;;4.28;;
79583;SDS011;69053;57.338;18.700;2023-04-16T07:22:02;7.28;;;3.97;;
79583;SDS011;69053;57.338;18.700;2023-04-16T07:27:04;7.30;;;4.10;;
79583;SDS011;69053;57.338;18.700;2023-04-16T07:32:05;9.20;;;4.63;;
79583;SDS011;69053;57.338;18.700;2023-04-16T07:37:08;7.60;;;4.57;;
79583;SDS011;69053;57.338;18.700;2023-04-16T07:42:12;7.00;;;4.15;;
79583;SDS011;69053;57.338;18.700;2023-04-16T07:47:16;10.35;;;4.43;;
79583;SDS011;69053;57.338;18.700;2023-04-16T07:52:17;8.23;;;4.70;;
79583;SDS011;69053;57.338;18.700;2023-04-16T07:57:17;10.00;;;4.40;;
79583;SDS011;69053;57.338;18.700;2023-04-16T08:02:18;8.88;;;5.03;;
79583;SDS011;69053;57.338;18.700;2023-04-16T08:07:18;11.45;;;4.57;;
79583;SDS011;69053;57.338;18.700;2023-04-16T08:12:19;6.40;;;4.22;;
79583;SDS011;69053;57.338;18.700;2023-04-16T08:17:20;8.27;;;4.25;;
79583;SDS011;69053;57.338;18.700;2023-04-16T08:22:20;6.88;;;4.53;;
79583;SDS011;69053;57.338;18.700;2023-04-16T08:27:21;12.32;;;4.72;;
79583;SDS011;69053;57.338;18.700;2023-04-16T08:32:22;7.60;;;4.50;;
79583;SDS011;69053;57.338;18.700;2023-04-16T08:37:22;9.02;;;5.53;;
79583;SDS011;69053;57.338;18.700;2023-04-16T08:42:28;7.82;;;5.40;;
79583;SDS011;69053;57.338;18.700;2023-04-16T08:47:31;9.90;;;5.25;;
79583;SDS011;69053;57.338;18.700;2023-04-16T08:52:36;11.93;;;5.63;;
79583;SDS011;69053;57.338;18.700;2023-04-16T08:58:18;9.45;;;5.22;;
79583;SDS011;69053;57.338;18.700;2023-04-16T09:03:21;8.70;;;4.47;;
79583;SDS011;69053;57.338;18.700;2023-04-16T09:08:21;8.55;;;4.72;;
79583;SDS011;69053;57.338;18.700;2023-04-16T09:13:22;7.47;;;4.50;;
79583;SDS011;69053;57.338;18.700;2023-04-16T09:18:24;6.57;;;4.90;;
79583;SDS011;69053;57.338;18.700;2023-04-16T09:23:25;8.90;;;5.45;;
79583;SDS011;69053;57.338;18.700;2023-04-16T09:28:41;8.80;;;5.13;;
79583;SDS011;69053;57.338;18.700;2023-04-16T09:34:05;8.43;;;5.63;;
79583;SDS011;69053;57.338;18.700;2023-04-16T09:39:08;7.30;;;4.57;;
79583;SDS011;69053;57.338;18.700;2023-04-16T09:44:18;6.75;;;4.85;;
79583;SDS011;69053;57.338;18.700;2023-04-16T09:49:21;6.70;;;4.82;;
79583;SDS011;69053;57.338;18.700;2023-04-16T09:54:25;10.18;;;5.65;;
79583;SDS011;69053;57.338;18.700;2023-04-16T09:59:26;7.55;;;5.40;;
79583;SDS011;69053;57.338;18.700;2023-04-16T10:04:31;14.43;;;5.38;;
79583;SDS011;69053;57.338;18.700;2023-04-16T10:09:49;9.38;;;5.18;;
79583;SDS011;69053;57.338;18.700;2023-04-16T10:14:51;7.57;;;4.57;;
79583;SDS011;69053;57.338;18.700;2023-04-16T10:19:52;10.23;;;5.15;;
79583;SDS011;69053;57.338;18.700;2023-04-16T10:24:53;7.55;;;4.97;;
79583;SDS011;69053;57.338;18.700;2023-04-16T10:29:55;7.63;;;4.72;;
79583;SDS011;69053;57.338;18.700;2023-04-16T10:34:55;10.02;;;4.80;;
79583;SDS011;69053;57.338;18.700;2023-04-16T10:39:57;9.05;;;5.45;;
79583;SDS011;69053;57.338;18.700;2023-04-16T10:45:01;7.57;;;5.07;;
79583;SDS011;69053;57.338;18.700;2023-04-16T10:50:13;8.38;;;5.68;;
79583;SDS011;69053;57.338;18.700;2023-04-16T10:55:17;6.50;;;4.97;;
79583;SDS011;69053;57.338;18.700;2023-04-16T11:00:20;8.88;;;4.95;;
79583;SDS011;69053;57.338;18.700;2023-04-16T11:05:22;8.95;;;4.95;;
79583;SDS011;69053;57.338;18.700;2023-04-16T11:10:23;8.27;;;4.80;;
79583;SDS011;69053;57.338;18.700;2023-04-16T11:15:25;10.80;;;5.43;;
79583;SDS011;69053;57.338;18.700;2023-04-16T11:20:30;7.53;;;4.75;;
79583;SDS011;69053;57.338;18.700;2023-04-16T11:25:30;7.70;;;5.13;;
79583;SDS011;69053;57.338;18.700;2023-04-16T11:35:43;9.00;;;5.03;;
79583;SDS011;69053;57.338;18.700;2023-04-16T11:40:45;8.27;;;5.15;;
79583;SDS011;69053;57.338;18.700;2023-04-16T11:45:58;8.50;;;5.30;;
79583;SDS011;69053;57.338;18.700;2023-04-16T11:51:00;11.27;;;5.47;;
79583;SDS011;69053;57.338;18.700;2023-04-16T11:56:04;8.13;;;5.28;;
79583;SDS011;69053;57.338;18.700;2023-04-16T12:01:07;7.40;;;5.35;;
79583;SDS011;69053;57.338;18.700;2023-04-16T12:06:09;17.63;;;5.88;;
79583;SDS011;69053;57.338;18.700;2023-04-16T12:11:09;7.10;;;4.97;;
79583;SDS011;69053;57.338;18.700;2023-04-16T12:16:17;7.82;;;5.68;;
79583;SDS011;69053;57.338;18.700;2023-04-16T12:21:20;7.18;;;5.05;;
79583;SDS011;69053;57.338;18.700;2023-04-16T12:26:21;11.25;;;5.78;;
79583;SDS011;69053;57.338;18.700;2023-04-16T12:31:36;7.38;;;5.25;;
79583;SDS011;69053;57.338;18.700;2023-04-16T12:36:37;7.05;;;4.88;;
79583;SDS011;69053;57.338;18.700;2023-04-16T12:41:39;8.63;;;4.68;;
79583;SDS011;69053;57.338;18.700;2023-04-16T12:46:42;7.57;;;5.20;;
79583;SDS011;69053;57.338;18.700;2023-04-16T12:51:48;5.82;;;4.80;;
79583;SDS011;69053;57.338;18.700;2023-04-16T12:56:48;22.10;;;6.25;;
79583;SDS011;69053;57.338;18.700;2023-04-16T13:01:49;10.00;;;5.88;;
79583;SDS011;69053;57.338;18.700;2023-04-16T13:06:50;8.23;;;5.07;;
79583;SDS011;69053;57.338;18.700;2023-04-16T13:11:57;8.68;;;4.85;;
79583;SDS011;69053;57.338;18.700;2023-04-16T13:17:03;7.95;;;5.32;;
79583;SDS011;69053;57.338;18.700;2023-04-16T13:22:03;12.65;;;5.40;;
79583;SDS011;69053;57.338;18.700;2023-04-16T13:27:04;8.27;;;5.50;;
79583;SDS011;69053;57.338;18.700;2023-04-16T13:32:07;7.78;;;5.03;;
79583;SDS011;69053;57.338;18.700;2023-04-16T13:37:07;9.95;;;5.03;;
79583;SDS011;69053;57.338;18.700;2023-04-16T13:42:08;7.60;;;5.20;;
79583;SDS011;69053;57.338;18.700;2023-04-16T13:47:08;9.50;;;6.00;;
79583;SDS011;69053;57.338;18.700;2023-04-16T13:52:10;7.30;;;4.80;;
79583;SDS011;69053;57.338;18.700;2023-04-16T13:57:11;9.57;;;5.05;;
79583;SDS011;69053;57.338;18.700;2023-04-16T14:02:11;8.32;;;5.13;;
79583;SDS011;69053;57.338;18.700;2023-04-16T14:07:13;9.15;;;5.53;;
79583;SDS011;69053;57.338;18.700;2023-04-16T14:12:14;6.72;;;5.13;;
79583;SDS011;69053;57.338;18.700;2023-04-16T14:17:15;11.40;;;5.60;;
79583;SDS011;69053;57.338;18.700;2023-04-16T14:22:19;10.70;;;5.18;;
79583;SDS011;69053;57.338;18.700;2023-04-16T14:27:19;6.85;;;4.82;;
79583;SDS011;69053;57.338;18.700;2023-04-16T14:38:14;7.68;;;5.25;;
79583;SDS011;69053;57.338;18.700;2023-04-16T14:43:16;7.85;;;5.32;;
79583;SDS011;69053;57.338;18.700;2023-04-16T14:48:16;7.95;;;5.00;;
79583;SDS011;69053;57.338;18.700;2023-04-16T14:53:17;8.65;;;5.00;;
79583;SDS011;69053;57.338;18.700;2023-04-16T14:58:18;8.27;;;4.82;;
79583;SDS011;69053;57.338;18.700;2023-04-16T15:03:18;8.38;;;4.88;;
79583;SDS011;69053;57.338;18.700;2023-04-16T15:08:19;8.20;;;4.40;;
79583;SDS011;69053;57.338;18.700;2023-04-16T15:13:20;9.93;;;4.85;;
79583;SDS011;69053;57.338;18.700;2023-04-16T15:18:20;7.55;;;4.72;;
79583;SDS011;69053;57.338;18.700;2023-04-16T15:23:21;7.43;;;4.47;;
79583;SDS011;69053;57.338;18.700;2023-04-16T15:28:22;8.30;;;4.45;;
79583;SDS011;69053;57.338;18.700;2023-04-16T15:33:22;7.32;;;4.68;;
79583;SDS011;69053;57.338;18.700;2023-04-16T15:38:26;9.77;;;4.32;;
79583;SDS011;69053;57.338;18.700;2023-04-16T15:43:29;7.90;;;4.25;;
79583;SDS011;69053;57.338;18.700;2023-04-16T15:48:30;5.75;;;4.25;;
79583;SDS011;69053;57.338;18.700;2023-04-16T15:53:30;5.97;;;4.40;;
79583;SDS011;69053;57.338;18.700;2023-04-16T15:58:31;6.45;;;3.80;;
79583;SDS011;69053;57.338;18.700;2023-04-16T16:03:31;7.10;;;3.80;;
79583;SDS011;69053;57.338;18.700;2023-04-16T16:08:34;6.20;;;3.97;;
79583;SDS011;69053;57.338;18.700;2023-04-16T16:13:37;7.28;;;4.82;;
79583;SDS011;69053;57.338;18.700;2023-04-16T16:18:37;6.80;;;4.03;;
79583;SDS011;69053;57.338;18.700;2023-04-16T16:23:40;6.82;;;4.35;;
79583;SDS011;69053;57.338;18.700;2023-04-16T16:28:40;8.35;;;4.22;;
79583;SDS011;69053;57.338;18.700;2023-04-16T16:33:43;11.13;;;4.97;;
79583;SDS011;69053;57.338;18.700;2023-04-16T16:38:44;7.97;;;4.20;;
79583;SDS011;69053;57.338;18.700;2023-04-16T16:43:46;5.90;;;4.13;;
79583;SDS011;69053;57.338;18.700;2023-04-16T16:48:49;8.65;;;4.70;;
79583;SDS011;69053;57.338;18.700;2023-04-16T16:53:50;6.30;;;4.18;;
79583;SDS011;69053;57.338;18.700;2023-04-16T16:58:50;7.65;;;4.97;;
79583;SDS011;69053;57.338;18.700;2023-04-16T17:03:51;8.63;;;3.58;;
79583;SDS011;69053;57.338;18.700;2023-04-16T17:08:55;8.15;;;4.20;;
79583;SDS011;69053;57.338;18.700;2023-04-16T17:13:57;6.57;;;4.07;;
79583;SDS011;69053;57.338;18.700;2023-04-16T17:19:01;7.60;;;3.92;;
79583;SDS011;69053;57.338;18.700;2023-04-16T17:24:05;7.28;;;4.25;;
79583;SDS011;69053;57.338;18.700;2023-04-16T17:29:09;8.80;;;5.90;;
79583;SDS011;69053;57.338;18.700;2023-04-16T17:34:09;6.93;;;5.07;;
79583;SDS011;69053;57.338;18.700;2023-04-16T17:39:10;9.38;;;5.28;;
79583;SDS011;69053;57.338;18.700;2023-04-16T17:44:13;9.07;;;6.22;;
79583;SDS011;69053;57.338;18.700;2023-04-16T17:49:14;12.02;;;7.03;;
79583;SDS011;69053;57.338;18.700;2023-04-16T17:54:14;5.57;;;4.32;;
79583;SDS011;69053;57.338;18.700;2023-04-16T17:59:15;7.50;;;4.90;;
79583;SDS011;69053;57.338;18.700;2023-04-16T18:04:15;9.80;;;6.68;;
79583;SDS011;69053;57.338;18.700;2023-04-16T18:09:16;7.85;;;6.55;;
79583;SDS011;69053;57.338;18.700;2023-04-16T18:14:19;6.75;;;3.83;;
79583;SDS011;69053;57.338;18.700;2023-04-16T18:19:20;6.35;;;4.80;;
79583;SDS011;69053;57.338;18.700;2023-04-16T18:24:21;5.93;;;5.25;;
79583;SDS011;69053;57.338;18.700;2023-04-16T18:29:21;10.88;;;6.07;;
79583;SDS011;69053;57.338;18.700;2023-04-16T18:34:24;6.82;;;3.85;;
79583;SDS011;69053;57.338;18.700;2023-04-16T18:39:24;8.35;;;4.70;;
79583;SDS011;69053;57.338;18.700;2023-04-16T18:44:25;8.52;;;4.18;;
79583;SDS011;69053;57.338;18.700;2023-04-16T18:49:26;10.45;;;4.00;;
79583;SDS011;69053;57.338;18.700;2023-04-16T18:54:26;8.82;;;4.88;;
79583;SDS011;69053;57.338;18.700;2023-04-16T18:59:27;5.85;;;3.80;;
79583;SDS011;69053;57.338;18.700;2023-04-16T19:04:28;8.18;;;4.47;;
79583;SDS011;69053;57.338;18.700;2023-04-16T19:09:28;7.13;;;4.45;;
79583;SDS011;69053;57.338;18.700;2023-04-16T19:14:29;7.15;;;4.18;;
79583;SDS011;69053;57.338;18.700;2023-04-16T19:19:30;11.35;;;4.53;;
79583;SDS011;69053;57.338;18.700;2023-04-16T19:24:30;9.13;;;4.70;;
79583;SDS011;69053;57.338;18.700;2023-04-16T19:29:31;7.25;;;4.43;;
79583;SDS011;69053;57.338;18.700;2023-04-16T19:34:35;7.40;;;4.20;;
79583;SDS011;69053;57.338;18.700;2023-04-16T19:39:35;7.97;;;4.30;;
79583;SDS011;69053;57.338;18.700;2023-04-16T19:44:36;7.80;;;4.13;;
79583;SDS011;69053;57.338;18.700;2023-04-16T19:49:36;7.63;;;3.80;;
79583;SDS011;69053;57.338;18.700;2023-04-16T19:54:37;8.32;;;4.30;;
79583;SDS011;69053;57.338;18.700;2023-04-16T19:59:37;8.00;;;4.03;;
79583;SDS011;69053;57.338;18.700;2023-04-16T20:04:38;8.32;;;3.85;;
79583;SDS011;69053;57.338;18.700;2023-04-16T20:09:38;8.00;;;4.70;;
79583;SDS011;69053;57.338;18.700;2023-04-16T20:14:39;10.63;;;4.63;;
79583;SDS011;69053;57.338;18.700;2023-04-16T20:19:40;7.85;;;4.05;;
79583;SDS011;69053;57.338;18.700;2023-04-16T20:24:41;8.13;;;3.97;;
79583;SDS011;69053;57.338;18.700;2023-04-16T20:29:45;7.00;;;3.85;;
79583;SDS011;69053;57.338;18.700;2023-04-16T20:34:46;8.95;;;4.53;;
79583;SDS011;69053;57.338;18.700;2023-04-16T20:39:47;7.75;;;4.35;;
79583;SDS011;69053;57.338;18.700;2023-04-16T20:44:49;8.77;;;4.60;;
79583;SDS011;69053;57.338;18.700;2023-04-16T20:49:54;8.23;;;4.57;;
79583;SDS011;69053;57.338;18.700;2023-04-16T20:54:55;12.57;;;4.18;;
79583;SDS011;69053;57.338;18.700;2023-04-16T20:59:55;9.38;;;4.40;;
79583;SDS011;69053;57.338;18.700;2023-04-16T21:04:57;8.77;;;4.80;;
79583;SDS011;69053;57.338;18.700;2023-04-16T21:09:58;9.00;;;4.18;;
79583;SDS011;69053;57.338;18.700;2023-04-16T21:15:00;8.50;;;5.07;;
79583;SDS011;69053;57.338;18.700;2023-04-16T21:20:01;6.75;;;4.03;;
79583;SDS011;69053;57.338;18.700;2023-04-16T21:25:02;8.65;;;4.68;;
79583;SDS011;69053;57.338;18.700;2023-04-16T21:30:03;7.72;;;3.83;;
79583;SDS011;69053;57.338;18.700;2023-04-16T21:35:04;9.95;;;4.40;;
79583;SDS011;69053;57.338;18.700;2023-04-16T21:40:05;9.65;;;5.05;;
79583;SDS011;69053;57.338;18.700;2023-04-16T21:45:09;9.25;;;4.30;;
79583;SDS011;69053;57.338;18.700;2023-04-16T21:50:10;9.43;;;4.28;;
79583;SDS011;69053;57.338;18.700;2023-04-16T21:55:11;7.47;;;4.43;;
79583;SDS011;69053;57.338;18.700;2023-04-16T22:00:13;8.88;;;4.63;;
79583;SDS011;69053;57.338;18.700;2023-04-16T22:05:14;8.57;;;4.60;;
79583;SDS011;69053;57.338;18.700;2023-04-16T22:10:15;8.95;;;4.28;;
79583;SDS011;69053;57.338;18.700;2023-04-16T22:15:15;8.88;;;5.25;;
79583;SDS011;69053;57.338;18.700;2023-04-16T22:20:16;10.75;;;4.80;;
79583;SDS011;69053;57.338;18.700;2023-04-16T22:25:16;9.30;;;5.20;;
79583;SDS011;69053;57.338;18.700;2023-04-16T22:30:17;12.38;;;5.50;;
79583;SDS011;69053;57.338;18.700;2023-04-16T22:35:18;8.85;;;4.72;;
79583;SDS011;69053;57.338;18.700;2023-04-16T22:40:18;9.95;;;5.65;;
79583;SDS011;69053;57.338;18.700;2023-04-16T22:45:19;12.45;;;6.28;;
79583;SDS011;69053;57.338;18.700;2023-04-16T22:50:19;9.32;;;5.65;;
79583;SDS011;69053;57.338;18.700;2023-04-16T22:55:21;16.00;;;7.25;;
79583;SDS011;69053;57.338;18.700;2023-04-16T23:00:22;11.60;;;6.47;;
79583;SDS011;69053;57.338;18.700;2023-04-16T23:05:23;11.05;;;5.90;;
79583;SDS011;69053;57.338;18.700;2023-04-16T23:10:24;14.35;;;6.53;;
79583;SDS011;69053;57.338;18.700;2023-04-16T23:15:25;11.38;;;6.85;;
79583;SDS011;69053;57.338;18.700;2023-04-16T23:20:27;12.25;;;6.70;;
79583;SDS011;69053;57.338;18.700;2023-04-16T23:25:27;13.10;;;6.97;;
79583;SDS011;69053;57.338;18.700;2023-04-16T23:30:28;15.45;;;6.68;;
79583;SDS011;69053;57.338;18.700;2023-04-16T23:35:29;13.52;;;6.13;;
79583;SDS011;69053;57.338;18.700;2023-04-16T23:40:29;12.77;;;6.65;;
79583;SDS011;69053;57.338;18.700;2023-04-16T23:45:30;12.88;;;7.20;;
79583;SDS011;69053;57.338;18.700;2023-04-16T23:50:30;14.52;;;7.25;;
79583;SDS011;69053;57.338;18.700;2023-04-16T23:55:31;14.95;;;7.57;;
